This is the latest recevied weather packets stored in our database for station/object N5VIS. If no packets are shown the sender has not sent any weather packets the latest 1 day(s).
| Time | Temp. | Humidity | Pressure | Rain* | Wind** | Luminosity | Snow |
|---|---|---|---|---|---|---|---|
| 1778029761 | 21.67° C | 90% | 1014.6 hPa | 0 mm | - | - | - |
| 1778029460 | 21.67° C | 90% | 1014.6 hPa | 0 mm | - | - | - |
| 1778028854 | 21.67° C | 89% | 1014.6 hPa | 0 mm | - | - | - |
| 1778028247 | - | - | - | 0 mm | - | - | - |
| 1778027639 | 22.22° C | 86% | 1014.4 hPa | 0 mm | - | - | - |
| 1778027032 | 22.22° C | 86% | 1014.5 hPa | 0 mm | - | - | - |
| 1778025516 | 23.33° C | 82% | 1014.5 hPa | 0 mm | - | - | - |
| 1778024305 | 23.89° C | 79% | 1014.3 hPa | 0 mm | - | - | - |
| 1778024003 | 23.89° C | 78% | 1014.5 hPa | 0 mm | - | - | - |
| 1778023700 | 23.89° C | 77% | 1014.4 hPa | 0 mm | - | - | - |
| 1778023094 | 24.44° C | 75% | 1014.3 hPa | 0 mm | - | - | - |
| 1778022490 | 25° C | 75% | 1014.5 hPa | 0 mm | - | - | - |
| 1778022187 | 24.44° C | 76% | 1014.4 hPa | 0 mm | - | - | - |
| 1778020671 | 25.56° C | 73% | 1014.3 hPa | 0 mm | - | - | - |
| 1778019457 | 25.56° C | 74% | 1014.2 hPa | 0 mm | - | - | - |
| 1778019153 | 25.56° C | 73% | 1014.2 hPa | 0 mm | - | - | - |
| 1778018850 | 25.56° C | 73% | 1014.4 hPa | 0 mm | - | - | - |
| 1778016126 | 24.44° C | 79% | 1014.2 hPa | 0 mm | - | - | - |
| 1778015520 | 24.44° C | 78% | 1014.5 hPa | 0 mm | - | - | - |
| 1778014005 | 25° C | 76% | 1014.5 hPa | 0 mm | - | - | - |
| 1778013400 | 25° C | 76% | 1014.7 hPa | 0 mm | - | - | - |
| 1778011278 | 24.44° C | 76% | 1015.3 hPa | 0 mm | - | - | - |
| 1778010974 | 25° C | 74% | 1015 hPa | 0 mm | - | - | - |
| 1778009157 | 24.44° C | 75% | 1015.4 hPa | 0 mm | - | - | - |
* Rain latest hour (hover to see other rain measurements)
** Current wind speed in m/s (hover to see current wind gust speed)